메인 페이지
METAR-TAF:

METAR-TAF

공항 :

포스두이구아수, 파라나, 브라질

위도: 25-31S, 경도: 054-35W, 고도: 180m

현재 날씨관측

예보는 32분 전, 22:00시(UTC)에 발표되었습니다.
남동2kt
온도 14°C
습도 100%
기압 1024 hPa
시정 10km 이상
1500m 미만 상공 구름 및 적란운 없음

METAR: SBFI 182200Z 13002KT CAVOK 14/14 Q1024

시각: 19:32 (22:32 UTC)

예보

예보는 7 시간 32분 전, 15:00시(UTC)에 발표되었습니다.
예보 대상 시간: 18일 18시부터 19일 18시까지 (UTC)
남남동5kt
시정 10km 이상
1500m 미만 상공 구름 및 적란운 없음
확률 40%
19일 09시부터 19일 12시까지 (UTC)
시정: 0600m
고도 200ft 상공 구름 많음
안개
전환 중
19일 12시부터 19일 14시까지 (UTC)
동남동4kt
시정 10km 이상
고도 1500ft 상공 구름 많음
전환 중
1시부터 시까지 (UTC)
북동7kt
시정 10km 이상
1500m 미만 상공 구름 및 적란운 없음

TAF: SBFI 181500Z 1818/1918 16005KT CAVOK TN07/1909Z TX22/1918Z PROB40 1909/1912 0600 FG BKN002 BECMG 1912/1914 12004KT 9999 BKN015 BECMG 1 914/1916 05007KT CAVOK RMK PDJ

4,000개 이상의 공항 관측 자료 및 예보 (METAR 및 TAF 보고).

지도상에서 검색 가능한 기상관측소가 노란 점과 빨간 점으로 표시되어 있습니다.

기상관측소 명을 보려면 표시 위로 마우스를 이동하세요.

날씨 관측과 예보를 보려면 클릭하세요.

지도 변경 : 확대하려면 엑스 표시가 있는 녹색 버튼, 축소하려면 빼기 표시가 있는 녹색 버튼, 다음 페이지의 지도를 보려면 녹색 화살표를 클릭하세요.


METAR-TAF: